Time;durP1;ratioP1;P1;durP2;ratioP2;P2;SDS_P1;SDS_P2;PMS_P1;PMS_P2;Temp;Humidity;BMP_temperature;BMP_pressure;BME280_temperature;BME280_humidity;BME280_pressure;Samples;Min_cycle;Max_cycle;Signal;HPM_P1;HPM_P2
2024/02/16 00:00:11;;;;;;;34.60;20.60;;;;;;;6.98;84.24;100706.10;102068;1272;139818;-78
2024/02/16 00:03:00;;;;;;;33.20;21.00;;;;;;;6.96;84.07;100712.86;101385;1273;1003436;-77
2024/02/16 00:05:27;;;;;;;27.90;19.40;;;;;;;6.95;84.15;100705.96;102089;1270;107127;-77
2024/02/16 00:07:55;;;;;;;33.00;20.40;;;;;;;6.95;84.09;100705.61;102016;1271;139089;-77
2024/02/16 00:10:22;;;;;;;33.30;19.40;;;;;;;6.95;84.06;100703.20;102081;1273;106672;-76
2024/02/16 00:12:50;;;;;;;31.60;19.40;;;;;;;6.96;84.07;100708.20;102016;1273;139107;-76
2024/02/16 00:15:17;;;;;;;25.30;18.60;;;;;;;6.96;83.98;100707.33;102156;1273;114233;-77
2024/02/16 00:17:44;;;;;;;29.50;19.80;;;;;;;6.96;83.96;100706.12;102143;1270;107947;-78
2024/02/16 00:20:13;;;;;;;29.20;19.60;;;;;;;6.96;83.95;100709.06;102239;1270;99806;-78
2024/02/16 00:22:40;;;;;;;33.20;19.10;;;;;;;6.95;83.81;100710.11;102323;1273;107321;-77
2024/02/16 00:25:09;;;;;;;30.70;18.90;;;;;;;6.95;83.81;100703.71;102087;1273;139042;-78
2024/02/16 00:27:36;;;;;;;29.30;19.20;;;;;;;6.95;83.74;100705.63;102247;1270;113096;-77
2024/02/16 00:30:04;;;;;;;26.00;17.60;;;;;;;6.94;83.63;100705.80;102035;1273;139273;-76
2024/02/16 00:32:31;;;;;;;28.30;17.60;;;;;;;6.93;83.40;100706.50;102570;1273;99719;-78
2024/02/16 00:35:00;;;;;;;26.30;17.00;;;;;;;6.93;83.58;100704.77;102021;1273;106783;-77
2024/02/16 00:37:27;;;;;;;26.40;17.80;;;;;;;6.93;83.39;100708.75;102473;1273;139136;-77
2024/02/16 00:39:55;;;;;;;26.70;16.80;;;;;;;6.94;83.36;100697.85;102879;1270;113036;-76
2024/02/16 00:42:23;;;;;;;27.10;16.80;;;;;;;6.94;83.52;100694.91;102249;1273;139394;-77
2024/02/16 00:44:51;;;;;;;28.00;17.00;;;;;;;6.93;83.36;100699.24;103317;1270;98511;-78
2024/02/16 00:47:18;;;;;;;25.60;16.10;;;;;;;6.94;83.17;100696.81;103437;1273;106880;-78
2024/02/16 00:49:45;;;;;;;23.80;16.70;;;;;;;6.92;83.17;100693.73;103344;1270;139539;-77
2024/02/16 00:52:13;;;;;;;22.70;16.10;;;;;;;6.93;83.12;100691.80;102464;1270;112800;-76
2024/02/16 00:54:40;;;;;;;25.50;15.30;;;;;;;6.92;83.06;100683.17;102016;1270;139123;-76
2024/02/16 00:57:07;;;;;;;24.00;15.90;;;;;;;6.91;82.95;100687.86;102263;1270;99051;-76
2024/02/16 00:59:34;;;;;;;22.10;15.80;;;;;;;6.89;82.72;100691.68;102618;1270;108230;-77
2024/02/16 01:02:02;;;;;;;21.90;15.10;;;;;;;6.87;82.66;100684.27;102089;1273;139848;-77
2024/02/16 01:04:29;;;;;;;22.50;15.60;;;;;;;6.85;82.61;100682.92;102312;1270;112041;-75
2024/02/16 01:06:57;;;;;;;21.90;14.20;;;;;;;6.83;82.49;100682.23;103495;1270;139197;-76
2024/02/16 01:09:24;;;;;;;19.10;12.70;;;;;;;6.81;82.42;100676.88;103590;1270;98589;-77
2024/02/16 01:11:52;;;;;;;22.80;14.00;;;;;;;6.80;82.24;100676.38;103279;1268;138616;-75
2024/02/16 01:14:20;;;;;;;20.60;12.90;;;;;;;6.78;82.19;100672.08;102222;1270;99157;-75
2024/02/16 01:16:48;;;;;;;22.00;12.90;;;;;;;6.78;82.24;100669.31;102707;1269;112799;-76
2024/02/16 01:19:15;;;;;;;18.40;12.20;;;;;;;6.76;81.97;100672.79;102470;1271;139153;-76
2024/02/16 01:21:43;;;;;;;20.50;12.40;;;;;;;6.74;81.67;100667.46;102067;1274;99086;-76
2024/02/16 01:24:10;;;;;;;17.50;11.60;;;;;;;6.72;81.73;100672.84;101941;1273;139874;-75
2024/02/16 01:26:38;;;;;;;17.00;11.80;;;;;;;6.69;81.75;100659.39;102200;1273;99187;-74
2024/02/16 01:29:05;;;;;;;16.50;12.40;;;;;;;6.65;81.79;100656.31;102262;1273;111496;-77
2024/02/16 01:31:33;;;;;;;18.60;12.40;;;;;;;6.67;81.79;100665.11;102145;1274;139514;-76
2024/02/16 01:34:00;;;;;;;21.00;12.00;;;;;;;6.64;81.94;100659.77;102256;1273;99709;-76
2024/02/16 01:36:27;;;;;;;16.40;11.90;;;;;;;6.62;81.77;100662.55;102399;1271;139208;-75
2024/02/16 01:38:56;;;;;;;17.10;11.70;;;;;;;6.60;81.76;100659.13;102621;1271;98078;-75
2024/02/16 01:41:23;;;;;;;16.70;11.80;;;;;;;6.57;81.66;100653.11;101717;1272;1002280;-75
2024/02/16 01:43:52;;;;;;;19.90;12.00;;;;;;;6.54;81.88;100657.11;102695;1273;139288;-76
2024/02/16 01:46:19;;;;;;;16.60;11.60;;;;;;;6.52;81.79;100660.41;103006;1271;99552;-75
2024/02/16 01:48:47;;;;;;;16.10;11.20;;;;;;;6.49;81.74;100656.48;102731;1270;139954;-75
2024/02/16 01:51:15;;;;;;;19.90;11.30;;;;;;;6.48;81.76;100657.70;102967;1271;99140;-76
2024/02/16 01:53:42;;;;;;;16.50;11.50;;;;;;;6.45;81.71;100656.83;102633;1269;111637;-76
2024/02/16 01:56:10;;;;;;;16.70;11.60;;;;;;;6.42;81.67;100657.03;102251;1273;139123;-75
2024/02/16 01:58:37;;;;;;;16.50;11.20;;;;;;;6.40;81.92;100658.78;102056;1273;99838;-74
2024/02/16 02:01:05;;;;;;;18.00;11.50;;;;;;;6.38;81.77;100655.34;102020;1273;138991;-75
2024/02/16 02:03:33;;;;;;;16.70;10.90;;;;;;;6.36;81.74;100659.34;102084;1271;99217;-73
2024/02/16 02:06:00;;;;;;;19.00;11.30;;;;;;;6.33;81.56;100655.05;102147;1272;140688;-74
2024/02/16 02:08:27;;;;;;;15.40;10.50;;;;;;;6.31;81.59;100659.56;102189;1272;107656;-74
2024/02/16 02:10:55;;;;;;;16.90;10.90;;;;;;;6.28;81.39;100652.33;102815;1270;99152;-74
2024/02/16 02:13:22;;;;;;;17.50;11.10;;;;;;;6.25;81.23;100654.92;102861;1272;139190;-75
2024/02/16 02:15:50;;;;;;;15.90;11.10;;;;;;;6.23;81.02;100656.67;102166;1276;99181;-75
2024/02/16 02:18:16;;;;;;;16.40;10.50;;;;;;;6.21;81.22;100657.05;102075;1271;140259;-75
2024/02/16 02:20:44;;;;;;;15.60;10.80;;;;;;;6.18;81.02;100657.06;95609;1271;10174261;-75
2024/02/16 02:23:12;;;;;;;15.00;10.60;;;;;;;6.17;81.11;100656.73;102096;1270;108285;-75
2024/02/16 02:25:39;;;;;;;16.80;11.10;;;;;;;6.14;81.04;100653.48;102008;1271;139972;-73
2024/02/16 02:28:09;;;;;;;16.80;10.80;;;;;;;6.12;81.02;100651.60;102237;1273;113979;-76
2024/02/16 02:30:37;;;;;;;20.10;10.90;;;;;;;6.10;80.86;100651.25;102116;1273;139179;-75
2024/02/16 02:33:09;;;;;;;18.00;11.30;;;;;;;6.08;81.15;100649.36;102244;1271;99070;-75
2024/02/16 02:35:37;;;;;;;17.80;11.30;;;;;;;6.06;81.19;100646.27;102271;1273;106403;-76
2024/02/16 02:38:05;;;;;;;17.00;10.30;;;;;;;6.04;81.15;100643.17;102568;1272;139985;-76
2024/02/16 02:40:32;;;;;;;16.30;11.30;;;;;;;6.02;81.18;100643.89;103703;1270;112673;-74
2024/02/16 02:43:00;;;;;;;18.10;10.90;;;;;;;6.01;81.13;100641.48;102055;1270;139401;-76
2024/02/16 02:45:27;;;;;;;16.00;10.60;;;;;;;5.98;81.31;100638.23;103000;1270;99067;-74
2024/02/16 02:47:55;;;;;;;16.80;11.00;;;;;;;5.96;81.29;100636.86;103549;1270;139093;-74
2024/02/16 02:50:23;;;;;;;16.00;11.00;;;;;;;5.94;81.27;100634.30;103631;1271;97676;-74
2024/02/16 02:52:50;;;;;;;17.90;10.90;;;;;;;5.92;81.22;100639.46;102993;1271;113641;-73
2024/02/16 02:55:17;;;;;;;16.40;10.70;;;;;;;5.91;81.23;100640.33;102113;1281;139494;-74
2024/02/16 02:57:45;;;;;;;17.70;11.00;;;;;;;5.89;81.09;100643.61;102256;1273;99181;-74
2024/02/16 03:00:15;;;;;;;17.00;10.60;;;;;;;5.88;80.96;100644.11;102132;1273;139114;-74
2024/02/16 03:02:43;;;;;;;15.60;10.50;;;;;;;5.85;80.85;100641.39;102439;1272;99334;-74
2024/02/16 03:05:12;;;;;;;15.30;10.00;;;;;;;5.82;80.98;100643.82;103671;1270;111826;-72
2024/02/16 03:07:39;;;;;;;16.00;11.10;;;;;;;5.80;80.99;100650.05;102220;1273;139112;-75
2024/02/16 03:10:10;;;;;;;16.20;10.40;;;;;;;5.78;80.83;100649.38;102206;1273;99192;-74
2024/02/16 03:12:37;;;;;;;16.30;11.00;;;;;;;5.76;80.94;100646.64;102608;1270;140585;-73
2024/02/16 03:15:06;;;;;;;16.70;10.60;;;;;;;5.73;80.75;100651.46;103626;1271;97673;-74
2024/02/16 03:17:33;;;;;;;15.60;9.80;;;;;;;5.72;80.96;100653.71;102690;1270;112532;-74
2024/02/16 03:20:00;;;;;;;17.90;10.60;;;;;;;5.71;80.97;100652.67;102074;1270;138961;-73
2024/02/16 03:22:27;;;;;;;18.60;11.00;;;;;;;5.70;81.07;100653.20;102201;1270;99269;-74
2024/02/16 03:24:55;;;;;;;15.10;10.80;;;;;;;5.70;81.01;100651.48;102131;1272;139279;-74
2024/02/16 03:27:22;;;;;;;16.60;11.00;;;;;;;5.70;80.86;100648.54;102818;1271;99099;-72
2024/02/16 03:29:49;;;;;;;16.20;10.90;;;;;;;5.69;80.89;100646.83;102447;1276;111559;-73
2024/02/16 03:32:16;;;;;;;18.70;10.20;;;;;;;5.67;80.88;100646.33;102223;1273;107667;-72
2024/02/16 03:34:44;;;;;;;15.80;10.60;;;;;;;5.66;80.86;100642.54;102380;1273;99613;-72
2024/02/16 03:37:12;;;;;;;15.20;10.40;;;;;;;5.62;80.61;100643.60;102741;1269;138888;-73
2024/02/16 03:39:39;;;;;;;20.20;10.20;;;;;;;5.56;80.70;100638.64;102265;1267;99061;-73
2024/02/16 03:42:06;;;;;;;17.30;10.80;;;;;;;5.56;80.71;100651.22;102489;1270;139772;-73
2024/02/16 03:44:34;;;;;;;16.80;10.40;;;;;;;5.53;80.64;100648.12;102511;1270;107853;-73
2024/02/16 03:47:01;;;;;;;14.40;9.50;;;;;;;5.52;80.57;100651.92;102280;1272;99235;-73
2024/02/16 03:49:28;;;;;;;19.90;10.30;;;;;;;5.50;80.62;100648.14;102654;1273;139954;-74
2024/02/16 03:51:56;;;;;;;17.90;10.20;;;;;;;5.48;80.50;100648.16;102236;1273;99074;-73
2024/02/16 03:54:23;;;;;;;16.60;10.00;;;;;;;5.43;80.57;100644.90;102113;1273;139151;-72
2024/02/16 03:56:53;;;;;;;14.60;9.90;;;;;;;5.43;80.22;100644.73;102414;1270;106605;-74
2024/02/16 03:59:20;;;;;;;17.90;10.40;;;;;;;5.41;80.42;100646.99;102281;1273;98145;-73
2024/02/16 04:01:47;;;;;;;14.30;9.60;;;;;;;5.38;80.31;100642.35;101981;1273;139158;-72
2024/02/16 04:04:15;;;;;;;15.40;9.80;;;;;;;5.37;80.23;100648.02;103236;1270;99048;-74
2024/02/16 04:06:42;;;;;;;18.10;9.90;;;;;;;5.35;80.31;100645.80;103016;1267;139019;-73
2024/02/16 04:09:10;;;;;;;17.40;10.50;;;;;;;5.33;80.21;100648.56;103474;1272;107741;-72
2024/02/16 04:11:39;;;;;;;16.70;9.70;;;;;;;5.31;80.12;100647.38;103722;1267;97437;-72
2024/02/16 04:14:07;;;;;;;14.70;10.00;;;;;;;5.29;80.17;100644.45;102177;1274;138718;-72
2024/02/16 04:16:35;;;;;;;14.50;9.90;;;;;;;5.27;79.91;100646.02;102208;1273;99206;-72
2024/02/16 04:19:02;;;;;;;14.70;10.10;;;;;;;5.27;79.82;100648.60;102100;1273;140016;-73
2024/02/16 04:21:29;;;;;;;15.10;9.80;;;;;;;5.23;79.77;100646.89;102225;1273;106677;-73
2024/02/16 04:23:57;;;;;;;20.20;10.50;;;;;;;5.22;79.70;100648.64;102198;1270;139354;-72
2024/02/16 04:26:24;;;;;;;16.90;10.40;;;;;;;5.19;79.71;100651.55;102033;1284;107917;-72
2024/02/16 04:28:52;;;;;;;18.20;11.60;;;;;;;5.16;79.60;100647.08;102180;1272;99104;-71
2024/02/16 04:31:19;;;;;;;17.60;11.00;;;;;;;5.14;79.69;100647.61;102120;1267;139308;-72
2024/02/16 04:33:48;;;;;;;14.90;9.60;;;;;;;5.10;79.52;100653.31;102151;1271;108427;-72
2024/02/16 04:36:17;;;;;;;15.20;10.80;;;;;;;5.07;79.61;100653.00;102140;1270;139463;-72
2024/02/16 04:38:44;;;;;;;17.80;11.50;;;;;;;5.03;79.58;100654.55;102169;1271;108227;-73
2024/02/16 04:41:11;;;;;;;21.00;11.70;;;;;;;4.99;79.62;100651.27;102251;1273;100127;-73
2024/02/16 04:43:39;;;;;;;18.10;11.80;;;;;;;4.96;79.85;100652.33;102048;1273;139097;-73
2024/02/16 04:46:06;;;;;;;18.50;11.80;;;;;;;4.92;79.76;100652.34;102183;1274;106846;-73
2024/02/16 04:48:34;;;;;;;19.70;11.80;;;;;;;4.89;79.68;100646.84;102098;1270;139450;-73
2024/02/16 04:51:01;;;;;;;16.00;10.70;;;;;;;4.84;79.84;100645.46;102283;1273;108150;-73
2024/02/16 04:53:29;;;;;;;15.80;10.50;;;;;;;4.81;79.74;100645.11;102261;1273;99174;-71
2024/02/16 04:55:56;;;;;;;16.90;10.60;;;;;;;4.77;79.80;100648.57;102210;1272;138769;-72
2024/02/16 04:58:23;;;;;;;16.40;10.30;;;;;;;4.74;79.97;100646.18;102259;1272;108466;-72
2024/02/16 05:00:51;;;;;;;15.50;10.90;;;;;;;4.72;80.16;100647.05;102767;1270;138926;-72
2024/02/16 05:03:19;;;;;;;18.90;11.40;;;;;;;4.67;80.13;100648.78;103598;1269;107427;-71
2024/02/16 05:05:46;;;;;;;19.30;12.00;;;;;;;4.67;80.26;100643.09;102294;1270;99093;-73
2024/02/16 05:08:15;;;;;;;19.80;12.10;;;;;;;4.65;80.21;100650.48;102213;1270;138769;-73
2024/02/16 05:10:42;;;;;;;19.30;11.90;;;;;;;4.62;80.33;100649.29;102242;1273;107221;-73
2024/02/16 05:13:11;;;;;;;21.00;11.90;;;;;;;4.60;80.39;100648.61;102184;1269;138945;-72
2024/02/16 05:15:41;;;;;;;17.80;11.10;;;;;;;4.58;80.33;100645.17;102220;1273;107568;-72
2024/02/16 05:18:12;;;;;;;17.10;11.10;;;;;;;4.55;80.50;100647.23;102181;1267;139053;-72
2024/02/16 05:20:39;;;;;;;19.90;11.80;;;;;;;4.52;80.51;100647.42;102212;1273;111490;-71
2024/02/16 05:23:06;;;;;;;18.90;11.50;;;;;;;4.50;80.52;100640.37;102161;1273;106507;-71
2024/02/16 05:25:34;;;;;;;18.50;11.10;;;;;;;4.48;80.58;100638.64;102136;1272;139673;-72
2024/02/16 05:28:01;;;;;;;16.50;11.00;;;;;;;4.47;80.48;100635.86;102242;1272;106889;-73
2024/02/16 05:30:28;;;;;;;14.30;10.50;;;;;;;4.46;80.50;100632.60;102166;1273;139711;-73
2024/02/16 05:32:59;;;;;;;16.70;10.50;;;;;;;4.45;80.71;100635.87;102248;1272;112877;-72
2024/02/16 05:35:28;;;;;;;17.10;11.00;;;;;;;4.45;80.83;100640.17;102168;1273;108146;-72
2024/02/16 05:37:56;;;;;;;16.70;11.10;;;;;;;4.45;80.71;100648.27;102115;1270;139037;-71
2024/02/16 05:40:24;;;;;;;20.00;11.30;;;;;;;4.41;80.76;100636.91;102247;1270;107510;-71
2024/02/16 05:42:52;;;;;;;15.70;11.30;;;;;;;4.46;80.56;100644.65;102073;1270;138961;-72
2024/02/16 05:45:19;;;;;;;21.60;12.00;;;;;;;4.45;80.78;100648.44;102220;1270;112193;-72
2024/02/16 05:47:48;;;;;;;20.50;12.30;;;;;;;4.45;80.74;100654.47;102048;1270;107831;-72
2024/02/16 05:50:16;;;;;;;20.00;11.80;;;;;;;4.44;80.69;100654.30;102232;1272;100854;-71
2024/02/16 05:52:44;;;;;;;17.10;11.50;;;;;;;4.44;80.77;100659.98;102124;1270;109108;-71
2024/02/16 05:55:14;;;;;;;17.20;12.60;;;;;;;4.45;80.73;100664.11;102095;1270;140777;-72
2024/02/16 05:57:41;;;;;;;20.10;11.80;;;;;;;4.45;80.82;100661.36;102240;1273;112328;-71
2024/02/16 06:00:13;;;;;;;22.10;12.00;;;;;;;4.46;80.99;100660.15;102079;1272;139129;-72
2024/02/16 06:02:41;;;;;;;17.00;12.10;;;;;;;4.48;80.71;100662.91;102150;1270;99784;-73
2024/02/16 06:05:09;;;;;;;19.00;12.00;;;;;;;4.50;80.83;100660.16;102201;1273;107352;-72
2024/02/16 06:07:38;;;;;;;20.20;12.20;;;;;;;4.57;80.64;100665.32;102084;1270;139034;-72
2024/02/16 06:10:10;;;;;;;19.20;12.40;;;;;;;4.65;80.42;100660.13;102342;1270;113202;-72
2024/02/16 06:12:40;;;;;;;18.70;12.80;;;;;;;4.74;80.45;100663.56;102391;1273;140512;-72
2024/02/16 06:15:09;;;;;;;24.60;13.40;;;;;;;4.85;80.19;100666.48;102261;1272;99190;-70
2024/02/16 06:17:36;;;;;;;18.00;11.80;;;;;;;4.97;79.73;100671.61;102198;1272;106972;-71
2024/02/16 06:20:05;;;;;;;21.80;12.00;;;;;;;5.09;79.36;100669.70;102106;1270;138909;-71
2024/02/16 06:22:33;;;;;;;20.30;12.30;;;;;;;5.24;79.15;100663.61;102695;1270;1002615;-70
2024/02/16 06:25:01;;;;;;;20.10;11.50;;;;;;;5.38;78.72;100667.86;103196;1269;139797;-71
2024/02/16 06:27:29;;;;;;;18.00;12.00;;;;;;;5.54;78.17;100669.68;102214;1272;99179;-72
2024/02/16 06:29:56;;;;;;;20.40;13.00;;;;;;;5.69;77.83;100673.05;102163;1270;138950;-73
2024/02/16 06:32:23;;;;;;;18.30;11.80;;;;;;;5.83;77.16;100674.88;102205;1273;99271;-72
2024/02/16 06:34:51;;;;;;;19.60;11.70;;;;;;;6.05;76.83;100679.77;102257;1270;112412;-72
2024/02/16 06:37:18;;;;;;;19.60;12.60;;;;;;;6.25;75.96;100687.06;102048;1270;138900;-70
2024/02/16 06:39:46;;;;;;;25.90;12.60;;;;;;;6.44;75.31;100686.39;102210;1273;99730;-72
2024/02/16 06:42:13;;;;;;;18.40;12.50;;;;;;;6.71;74.76;100688.05;101946;1272;138406;-73
2024/02/16 06:44:40;;;;;;;17.70;11.70;;;;;;;7.09;73.71;100691.13;102198;1270;99183;-71
2024/02/16 06:47:08;;;;;;;21.00;12.30;;;;;;;7.45;72.65;100690.36;102183;1270;112040;-72
2024/02/16 06:49:35;;;;;;;25.70;12.80;;;;;;;7.83;71.83;100691.42;102092;1270;138451;-71
2024/02/16 06:52:02;;;;;;;17.10;12.50;;;;;;;8.19;71.00;100686.21;102262;1273;99168;-71
2024/02/16 06:54:29;;;;;;;24.00;13.30;;;;;;;8.50;69.21;100695.27;102077;1270;138396;-70
2024/02/16 06:56:57;;;;;;;23.60;14.20;;;;;;;8.75;68.44;100692.62;102160;1270;99219;-71
2024/02/16 06:59:25;;;;;;;18.30;12.90;;;;;;;8.97;67.97;100685.26;102135;1270;112697;-69
2024/02/16 07:01:52;;;;;;;21.30;13.40;;;;;;;9.21;66.69;100690.89;101994;1270;140018;-72
2024/02/16 07:04:20;;;;;;;23.30;13.50;;;;;;;9.25;66.18;100684.73;102160;1270;99084;-73
2024/02/16 07:06:59;;;;;;;22.30;13.20;;;;;;;9.32;67.33;100683.19;102154;1272;138226;-72
2024/02/16 07:09:27;;;;;;;21.70;13.80;;;;;;;9.47;66.40;100680.30;102054;1271;99615;-75
2024/02/16 07:11:55;;;;;;;20.80;12.90;;;;;;;9.42;65.08;100685.60;101926;1270;113952;-73
2024/02/16 07:14:22;;;;;;;22.50;14.30;;;;;;;9.34;65.38;100681.96;102071;1267;107081;-73
2024/02/16 07:16:49;;;;;;;24.00;14.00;;;;;;;9.24;64.67;100682.84;102237;1270;99057;-72
2024/02/16 07:19:17;;;;;;;20.00;13.60;;;;;;;9.22;64.84;100687.41;102153;1270;138312;-71
2024/02/16 07:21:46;;;;;;;26.00;15.30;;;;;;;9.27;63.84;100686.08;102151;1270;99169;-72
2024/02/16 07:24:15;;;;;;;24.20;14.90;;;;;;;9.26;63.31;100687.48;102236;1270;138845;-72
2024/02/16 07:26:42;;;;;;;23.60;14.60;;;;;;;9.36;63.90;100687.13;102285;1270;107128;-64
2024/02/16 07:29:13;;;;;;;21.10;14.20;;;;;;;9.49;63.12;100687.36;102332;1269;99188;-63
2024/02/16 07:31:40;;;;;;;23.10;14.50;;;;;;;9.61;62.83;100692.85;103391;1270;138344;-72
2024/02/16 07:34:07;;;;;;;21.10;13.80;;;;;;;9.80;62.66;100694.52;102221;1272;99607;-72
2024/02/16 07:36:36;;;;;;;23.50;14.00;;;;;;;10.01;62.25;100696.14;101961;1270;138716;-73
2024/02/16 07:39:04;;;;;;;23.60;14.30;;;;;;;10.18;60.76;100696.61;102134;1271;107574;-72
2024/02/16 07:41:32;;;;;;;19.60;14.00;;;;;;;10.23;60.14;100703.32;102265;1270;99168;-73
2024/02/16 07:43:59;;;;;;;19.80;13.90;;;;;;;10.30;59.64;100706.11;102099;1267;138990;-73
2024/02/16 07:46:26;;;;;;;23.50;14.10;;;;;;;10.40;59.93;100706.05;102235;1270;99044;-73
2024/02/16 07:48:53;;;;;;;22.70;14.30;;;;;;;10.53;60.26;100708.66;101445;1271;1002882;-73
2024/02/16 07:51:22;;;;;;;21.40;13.30;;;;;;;10.70;60.11;100703.56;103616;1270;108979;-73
2024/02/16 07:53:49;;;;;;;23.30;12.60;;;;;;;10.91;60.33;100698.14;102032;1272;99875;-69
2024/02/16 07:56:18;;;;;;;21.90;12.90;;;;;;;11.08;58.65;100704.13;102123;1270;108576;-68
2024/02/16 07:58:45;;;;;;;25.20;13.90;;;;;;;11.09;58.13;100702.18;102865;1270;99864;-69
2024/02/16 08:01:15;;;;;;;22.50;13.80;;;;;;;11.14;58.49;100698.90;102103;1272;138446;-69
2024/02/16 08:03:44;;;;;;;22.10;13.90;;;;;;;11.19;57.26;100708.16;102202;1269;109858;-69
2024/02/16 08:06:11;;;;;;;18.00;12.80;;;;;;;11.11;56.83;100705.95;103513;1270;139390;-69
2024/02/16 08:08:39;;;;;;;23.00;13.90;;;;;;;11.08;57.80;100706.20;102916;1268;107887;-69
2024/02/16 08:11:06;;;;;;;21.60;14.70;;;;;;;11.16;57.85;100703.73;101458;1273;1003649;-69
2024/02/16 08:13:34;;;;;;;25.40;13.40;;;;;;;11.21;57.15;100704.48;102097;1270;139121;-69
2024/02/16 08:16:06;;;;;;;19.40;13.20;;;;;;;11.32;57.78;100695.98;102205;1270;109082;-72
2024/02/16 08:18:34;;;;;;;23.30;13.20;;;;;;;11.41;56.53;100694.66;102064;1270;138860;-73
2024/02/16 08:21:02;;;;;;;21.60;14.40;;;;;;;11.49;55.96;100693.41;102175;1270;107369;-72
2024/02/16 08:23:30;;;;;;;20.10;13.00;;;;;;;11.69;55.57;100698.22;102173;1270;99285;-74
2024/02/16 08:25:58;;;;;;;19.00;13.50;;;;;;;11.89;54.98;100692.95;102030;1270;140139;-73
2024/02/16 08:28:25;;;;;;;24.80;13.20;;;;;;;12.21;54.72;100682.70;103207;1275;107037;-73
2024/02/16 08:30:52;;;;;;;17.30;12.50;;;;;;;12.66;54.11;100680.89;102095;1271;138794;-71
2024/02/16 08:33:20;;;;;;;19.80;12.80;;;;;;;13.10;53.08;100681.62;102103;1270;108875;-72
2024/02/16 08:35:47;;;;;;;19.70;13.10;;;;;;;13.45;52.51;100672.86;102206;1268;99165;-73
2024/02/16 08:38:15;;;;;;;21.60;12.20;;;;;;;13.91;52.08;100672.66;102042;1270;138509;-73
2024/02/16 08:40:42;;;;;;;23.80;12.50;;;;;;;14.43;51.51;100669.20;102111;1267;108014;-73
2024/02/16 08:43:09;;;;;;;19.70;12.40;;;;;;;14.98;50.99;100665.12;101984;1273;139977;-72
2024/02/16 08:45:37;;;;;;;19.00;12.60;;;;;;;15.46;49.55;100662.96;101884;1273;109266;-74
2024/02/16 08:48:05;;;;;;;17.40;12.30;;;;;;;15.83;49.07;100664.42;101764;1273;138794;-82
2024/02/16 08:50:33;;;;;;;19.00;12.10;;;;;;;16.15;46.65;100672.17;101898;1273;113461;-74
2024/02/16 08:53:00;;;;;;;20.30;12.10;;;;;;;16.32;46.01;100672.08;101990;1272;108222;-73
2024/02/16 08:55:27;;;;;;;17.50;12.30;;;;;;;16.45;45.76;100667.55;102046;1270;139664;-73
2024/02/16 08:57:54;;;;;;;18.60;12.10;;;;;;;16.56;44.55;100670.52;102253;1267;107637;-73
2024/02/16 09:00:23;;;;;;;16.70;11.70;;;;;;;16.56;44.59;100667.55;102097;1269;138929;-73
2024/02/16 09:02:50;;;;;;;17.30;12.10;;;;;;;16.60;44.89;100666.44;102177;1270;111880;-71
2024/02/16 09:05:18;;;;;;;19.50;11.20;;;;;;;16.79;45.01;100657.59;102090;1273;108609;-74
2024/02/16 09:07:46;;;;;;;16.20;11.00;;;;;;;16.98;44.63;100657.88;102135;1270;139049;-73
2024/02/16 09:10:14;;;;;;;16.30;11.80;;;;;;;17.09;43.31;100661.66;102162;1270;108410;-74
2024/02/16 09:12:41;;;;;;;18.00;11.70;;;;;;;17.10;43.82;100652.86;102054;1273;139447;-73
2024/02/16 09:15:11;;;;;;;18.30;10.60;;;;;;;17.14;43.57;100648.39;102053;1270;112684;-73
2024/02/16 09:17:39;;;;;;;18.30;11.00;;;;;;;17.18;42.73;100656.07;101955;1273;106747;-74
2024/02/16 09:20:08;;;;;;;17.00;11.30;;;;;;;17.12;42.97;100650.99;102061;1270;138723;-74
2024/02/16 09:22:37;;;;;;;14.70;10.40;;;;;;;17.13;42.71;100651.64;102552;1272;106907;-73
2024/02/16 09:25:05;;;;;;;18.70;11.00;;;;;;;17.20;43.51;100643.16;102119;1270;139014;-73
2024/02/16 09:27:32;;;;;;;14.00;10.60;;;;;;;17.43;43.81;100642.41;102223;1273;112344;-74
2024/02/16 09:30:00;;;;;;;16.40;10.80;;;;;;;17.65;43.10;100644.60;101900;1271;140172;-73
2024/02/16 09:32:28;;;;;;;17.20;10.50;;;;;;;17.63;41.66;100645.93;102152;1270;99182;-74
2024/02/16 09:34:56;;;;;;;15.50;10.30;;;;;;;17.64;42.15;100648.66;102209;1270;108449;-73
2024/02/16 09:37:23;;;;;;;14.70;10.10;;;;;;;17.65;41.72;100648.83;102077;1270;138760;-74
2024/02/16 09:39:51;;;;;;;14.50;9.90;;;;;;;17.46;41.44;100647.70;102306;1272;112865;-73
2024/02/16 09:42:18;;;;;;;16.60;10.80;;;;;;;17.20;41.27;100645.27;102116;1273;138750;-72
2024/02/16 09:44:46;;;;;;;14.20;10.60;;;;;;;16.97;41.83;100642.82;102244;1272;99638;-73
2024/02/16 09:47:18;;;;;;;15.10;9.60;;;;;;;16.95;42.63;100640.46;102169;1268;108124;-73
2024/02/16 09:49:48;;;;;;;12.20;8.90;;;;;;;17.01;41.87;100634.66;102094;1270;138558;-73
2024/02/16 09:52:16;;;;;;;18.90;10.20;;;;;;;17.04;42.40;100632.41;102181;1270;111699;-73
2024/02/16 09:54:43;;;;;;;19.80;10.20;;;;;;;17.17;42.78;100631.55;102091;1267;138823;-73
2024/02/16 09:57:10;;;;;;;15.70;9.70;;;;;;;17.25;41.78;100634.66;102215;1269;99125;-74
2024/02/16 09:59:39;;;;;;;16.50;10.30;;;;;;;17.21;42.28;100630.60;102214;1270;108101;-74
2024/02/16 10:02:07;;;;;;;17.00;9.70;;;;;;;17.17;41.13;100634.35;102047;1273;139052;-74
2024/02/16 10:04:35;;;;;;;18.00;10.30;;;;;;;17.00;41.44;100622.81;102227;1268;110612;-74
2024/02/16 10:07:04;;;;;;;16.70;9.80;;;;;;;16.95;42.17;100625.90;101972;1270;138938;-73
2024/02/16 10:09:38;;;;;;;18.30;10.10;;;;;;;17.09;42.48;100620.36;102128;1270;99674;-75
2024/02/16 10:12:09;;;;;;;15.80;9.10;;;;;;;17.12;41.44;100623.55;102036;1270;140676;-74
2024/02/16 10:14:37;;;;;;;12.60;9.60;;;;;;;16.97;40.99;100624.20;102219;1268;99356;-74
2024/02/16 10:17:07;;;;;;;16.60;10.00;;;;;;;16.85;41.79;100617.23;102207;1270;112975;-74
2024/02/16 10:19:39;;;;;;;14.90;8.80;;;;;;;16.66;41.22;100616.80;102327;1270;139645;-74
2024/02/16 10:22:10;;;;;;;14.00;9.70;;;;;;;16.53;41.83;100604.12;102070;1271;99063;-75
2024/02/16 10:24:39;;;;;;;13.80;10.00;;;;;;;16.53;42.00;100612.90;102121;1269;138466;-76
2024/02/16 10:27:07;;;;;;;13.70;10.10;;;;;;;16.44;42.01;100609.53;102319;1273;99038;-74
2024/02/16 10:29:35;;;;;;;14.60;9.10;;;;;;;16.29;42.33;100604.44;103156;1269;112299;-74
2024/02/16 10:32:03;;;;;;;16.50;9.80;;;;;;;16.19;42.56;100599.02;102142;1268;138826;-74
2024/02/16 10:34:32;;;;;;;14.80;9.90;;;;;;;16.19;43.03;100603.05;102256;1270;100885;-75
2024/02/16 10:37:01;;;;;;;15.60;9.40;;;;;;;16.19;42.89;100604.25;102180;1273;139075;-74
2024/02/16 10:39:29;;;;;;;12.90;9.30;;;;;;;16.16;43.05;100594.26;102136;1273;99194;-73
2024/02/16 10:41:58;;;;;;;16.20;10.50;;;;;;;16.22;43.51;100588.83;102332;1272;114736;-74
2024/02/16 10:44:26;;;;;;;16.80;10.90;;;;;;;16.42;44.78;100579.95;102389;1270;107914;-72
2024/02/16 10:46:55;;;;;;;18.50;11.10;;;;;;;16.69;44.48;100569.80;102197;1270;99286;-71
2024/02/16 10:49:24;;;;;;;15.90;11.10;;;;;;;16.83;43.60;100574.32;102025;1270;140319;-75
2024/02/16 10:51:59;;;;;;;16.70;10.60;;;;;;;16.77;43.09;100576.91;101972;1272;99073;-74
2024/02/16 10:54:31;;;;;;;16.30;10.60;;;;;;;16.57;42.66;100580.77;102579;1272;138732;-75
2024/02/16 10:56:59;;;;;;;14.20;10.90;;;;;;;16.45;43.64;100578.05;102035;1273;109301;-74
2024/02/16 10:59:28;;;;;;;16.10;11.10;;;;;;;16.37;43.66;100574.09;102154;1270;99224;-73
2024/02/16 11:02:03;;;;;;;18.40;10.90;;;;;;;16.19;43.56;100575.34;102385;1270;139136;-76
2024/02/16 11:04:39;;;;;;;17.00;11.20;;;;;;;16.04;44.53;100571.17;102671;1273;99172;-78